sensor_id;sensor_type;location;lat;lon;timestamp;P1;durP1;ratioP1;P2;durP2;ratioP2
13321;SDS011;6730;46.248;6.930;2023-09-08T00:02:28;7.28;;;6.70;;
13321;SDS011;6730;46.248;6.930;2023-09-08T00:04:54;7.32;;;6.72;;
13321;SDS011;6730;46.248;6.930;2023-09-08T00:07:20;10.40;;;7.30;;
13321;SDS011;6730;46.248;6.930;2023-09-08T00:09:45;7.53;;;6.82;;
13321;SDS011;6730;46.248;6.930;2023-09-08T00:12:11;8.60;;;6.88;;
13321;SDS011;6730;46.248;6.930;2023-09-08T00:14:37;7.45;;;6.85;;
13321;SDS011;6730;46.248;6.930;2023-09-08T00:17:03;7.32;;;6.72;;
13321;SDS011;6730;46.248;6.930;2023-09-08T00:19:29;7.07;;;6.47;;
13321;SDS011;6730;46.248;6.930;2023-09-08T00:21:55;7.15;;;6.55;;
13321;SDS011;6730;46.248;6.930;2023-09-08T00:24:21;8.30;;;7.15;;
13321;SDS011;6730;46.248;6.930;2023-09-08T00:26:47;7.78;;;7.07;;
13321;SDS011;6730;46.248;6.930;2023-09-08T00:29:13;7.20;;;6.55;;
13321;SDS011;6730;46.248;6.930;2023-09-08T00:31:39;8.35;;;6.72;;
13321;SDS011;6730;46.248;6.930;2023-09-08T00:34:05;8.38;;;7.60;;
13321;SDS011;6730;46.248;6.930;2023-09-08T00:36:31;7.68;;;6.82;;
13321;SDS011;6730;46.248;6.930;2023-09-08T00:38:57;7.60;;;7.00;;
13321;SDS011;6730;46.248;6.930;2023-09-08T00:41:25;7.57;;;6.88;;
13321;SDS011;6730;46.248;6.930;2023-09-08T00:43:51;8.63;;;7.07;;
13321;SDS011;6730;46.248;6.930;2023-09-08T00:46:17;7.60;;;6.95;;
13321;SDS011;6730;46.248;6.930;2023-09-08T00:48:43;7.45;;;6.82;;
13321;SDS011;6730;46.248;6.930;2023-09-08T00:51:09;7.78;;;6.82;;
13321;SDS011;6730;46.248;6.930;2023-09-08T00:53:36;7.88;;;7.18;;
13321;SDS011;6730;46.248;6.930;2023-09-08T00:56:02;7.53;;;6.82;;
13321;SDS011;6730;46.248;6.930;2023-09-08T00:58:29;7.30;;;6.60;;
13321;SDS011;6730;46.248;6.930;2023-09-08T01:00:55;7.13;;;6.53;;
13321;SDS011;6730;46.248;6.930;2023-09-08T01:03:23;7.63;;;6.90;;
13321;SDS011;6730;46.248;6.930;2023-09-08T01:05:49;7.40;;;6.70;;
13321;SDS011;6730;46.248;6.930;2023-09-08T01:08:18;8.75;;;6.75;;
13321;SDS011;6730;46.248;6.930;2023-09-08T01:10:45;7.85;;;7.15;;
13321;SDS011;6730;46.248;6.930;2023-09-08T01:13:11;7.57;;;6.97;;
13321;SDS011;6730;46.248;6.930;2023-09-08T01:15:36;9.52;;;7.13;;
13321;SDS011;6730;46.248;6.930;2023-09-08T01:18:02;7.55;;;6.88;;
13321;SDS011;6730;46.248;6.930;2023-09-08T01:23:22;7.82;;;7.13;;
13321;SDS011;6730;46.248;6.930;2023-09-08T01:25:57;6.95;;;6.30;;
13321;SDS011;6730;46.248;6.930;2023-09-08T01:28:31;7.53;;;6.90;;
13321;SDS011;6730;46.248;6.930;2023-09-08T01:30:58;8.10;;;7.30;;
13321;SDS011;6730;46.248;6.930;2023-09-08T01:33:24;7.68;;;6.95;;
13321;SDS011;6730;46.248;6.930;2023-09-08T01:35:52;7.88;;;7.18;;
13321;SDS011;6730;46.248;6.930;2023-09-08T01:38:18;7.97;;;7.28;;
13321;SDS011;6730;46.248;6.930;2023-09-08T01:40:46;7.40;;;6.80;;
13321;SDS011;6730;46.248;6.930;2023-09-08T01:43:12;7.38;;;6.78;;
13321;SDS011;6730;46.248;6.930;2023-09-08T01:45:38;7.18;;;6.57;;
13321;SDS011;6730;46.248;6.930;2023-09-08T01:48:03;8.23;;;7.53;;
13321;SDS011;6730;46.248;6.930;2023-09-08T01:50:29;7.85;;;7.05;;
13321;SDS011;6730;46.248;6.930;2023-09-08T01:52:55;7.90;;;7.20;;
13321;SDS011;6730;46.248;6.930;2023-09-08T01:55:21;7.28;;;6.57;;
13321;SDS011;6730;46.248;6.930;2023-09-08T01:57:47;7.93;;;7.05;;
13321;SDS011;6730;46.248;6.930;2023-09-08T02:00:22;8.00;;;6.90;;
13321;SDS011;6730;46.248;6.930;2023-09-08T02:02:47;7.32;;;6.72;;
13321;SDS011;6730;46.248;6.930;2023-09-08T02:05:13;7.70;;;7.00;;
13321;SDS011;6730;46.248;6.930;2023-09-08T02:07:39;7.70;;;7.10;;
13321;SDS011;6730;46.248;6.930;2023-09-08T02:10:05;7.50;;;6.80;;
13321;SDS011;6730;46.248;6.930;2023-09-08T02:12:31;8.63;;;7.40;;
13321;SDS011;6730;46.248;6.930;2023-09-08T02:14:57;7.53;;;6.82;;
13321;SDS011;6730;46.248;6.930;2023-09-08T02:17:22;7.78;;;7.03;;
13321;SDS011;6730;46.248;6.930;2023-09-08T02:19:48;7.78;;;7.18;;
13321;SDS011;6730;46.248;6.930;2023-09-08T02:22:14;7.00;;;6.40;;
13321;SDS011;6730;46.248;6.930;2023-09-08T02:24:39;7.47;;;6.78;;
13321;SDS011;6730;46.248;6.930;2023-09-08T02:27:05;8.80;;;7.30;;
13321;SDS011;6730;46.248;6.930;2023-09-08T02:29:31;7.82;;;6.75;;
13321;SDS011;6730;46.248;6.930;2023-09-08T02:31:57;8.43;;;7.70;;
13321;SDS011;6730;46.248;6.930;2023-09-08T02:34:22;7.82;;;7.13;;
13321;SDS011;6730;46.248;6.930;2023-09-08T02:36:48;7.95;;;7.22;;
13321;SDS011;6730;46.248;6.930;2023-09-08T02:39:16;7.97;;;7.28;;
13321;SDS011;6730;46.248;6.930;2023-09-08T02:41:41;7.90;;;7.20;;
13321;SDS011;6730;46.248;6.930;2023-09-08T02:44:07;7.70;;;7.05;;
13321;SDS011;6730;46.248;6.930;2023-09-08T02:46:33;8.52;;;7.60;;
13321;SDS011;6730;46.248;6.930;2023-09-08T02:48:58;9.68;;;7.78;;
13321;SDS011;6730;46.248;6.930;2023-09-08T02:51:24;7.65;;;6.95;;
13321;SDS011;6730;46.248;6.930;2023-09-08T02:53:50;7.68;;;7.07;;
13321;SDS011;6730;46.248;6.930;2023-09-08T02:56:15;7.82;;;7.18;;
13321;SDS011;6730;46.248;6.930;2023-09-08T02:58:41;7.72;;;7.10;;
13321;SDS011;6730;46.248;6.930;2023-09-08T03:01:14;7.47;;;6.78;;
13321;SDS011;6730;46.248;6.930;2023-09-08T03:03:41;7.60;;;6.90;;
13321;SDS011;6730;46.248;6.930;2023-09-08T03:06:08;7.38;;;6.68;;
13321;SDS011;6730;46.248;6.930;2023-09-08T03:08:34;7.80;;;7.10;;
13321;SDS011;6730;46.248;6.930;2023-09-08T03:11:02;7.70;;;6.88;;
13321;SDS011;6730;46.248;6.930;2023-09-08T03:13:28;7.90;;;7.13;;
13321;SDS011;6730;46.248;6.930;2023-09-08T03:15:54;8.10;;;7.30;;
13321;SDS011;6730;46.248;6.930;2023-09-08T03:18:26;8.57;;;7.78;;
13321;SDS011;6730;46.248;6.930;2023-09-08T03:20:53;8.60;;;7.80;;
13321;SDS011;6730;46.248;6.930;2023-09-08T03:23:18;8.27;;;7.47;;
13321;SDS011;6730;46.248;6.930;2023-09-08T03:25:44;10.65;;;7.35;;
13321;SDS011;6730;46.248;6.930;2023-09-08T03:28:10;8.23;;;7.45;;
13321;SDS011;6730;46.248;6.930;2023-09-08T03:30:36;9.07;;;7.65;;
13321;SDS011;6730;46.248;6.930;2023-09-08T03:33:02;7.55;;;6.63;;
13321;SDS011;6730;46.248;6.930;2023-09-08T03:35:28;8.35;;;6.60;;
13321;SDS011;6730;46.248;6.930;2023-09-08T03:37:53;8.35;;;7.55;;
13321;SDS011;6730;46.248;6.930;2023-09-08T03:40:19;8.55;;;7.50;;
13321;SDS011;6730;46.248;6.930;2023-09-08T03:42:45;9.02;;;7.95;;
13321;SDS011;6730;46.248;6.930;2023-09-08T03:45:10;7.60;;;7.00;;
13321;SDS011;6730;46.248;6.930;2023-09-08T03:47:36;8.30;;;7.60;;
13321;SDS011;6730;46.248;6.930;2023-09-08T03:50:02;8.13;;;7.00;;
13321;SDS011;6730;46.248;6.930;2023-09-08T03:52:28;8.35;;;7.47;;
13321;SDS011;6730;46.248;6.930;2023-09-08T03:54:53;7.95;;;7.22;;
13321;SDS011;6730;46.248;6.930;2023-09-08T03:57:19;8.27;;;7.47;;
13321;SDS011;6730;46.248;6.930;2023-09-08T03:59:45;7.70;;;7.03;;
13321;SDS011;6730;46.248;6.930;2023-09-08T04:02:10;8.52;;;7.72;;
13321;SDS011;6730;46.248;6.930;2023-09-08T04:04:36;8.15;;;7.30;;
13321;SDS011;6730;46.248;6.930;2023-09-08T04:07:01;7.85;;;7.15;;
13321;SDS011;6730;46.248;6.930;2023-09-08T04:09:27;7.53;;;6.93;;
13321;SDS011;6730;46.248;6.930;2023-09-08T04:11:53;7.45;;;6.80;;
13321;SDS011;6730;46.248;6.930;2023-09-08T04:14:20;7.53;;;6.93;;
13321;SDS011;6730;46.248;6.930;2023-09-08T04:16:48;7.55;;;6.95;;
13321;SDS011;6730;46.248;6.930;2023-09-08T04:19:14;8.20;;;7.50;;
13321;SDS011;6730;46.248;6.930;2023-09-08T04:21:40;8.02;;;7.25;;
13321;SDS011;6730;46.248;6.930;2023-09-08T04:24:06;7.68;;;6.93;;
13321;SDS011;6730;46.248;6.930;2023-09-08T04:26:32;7.65;;;6.95;;
13321;SDS011;6730;46.248;6.930;2023-09-08T04:28:58;7.95;;;7.10;;
13321;SDS011;6730;46.248;6.930;2023-09-08T04:31:23;7.55;;;6.85;;
13321;SDS011;6730;46.248;6.930;2023-09-08T04:33:49;8.77;;;7.82;;
13321;SDS011;6730;46.248;6.930;2023-09-08T04:36:14;7.80;;;7.10;;
13321;SDS011;6730;46.248;6.930;2023-09-08T04:38:40;7.95;;;7.25;;
13321;SDS011;6730;46.248;6.930;2023-09-08T04:41:06;8.43;;;7.57;;
13321;SDS011;6730;46.248;6.930;2023-09-08T04:43:32;8.30;;;7.57;;
13321;SDS011;6730;46.248;6.930;2023-09-08T04:45:58;7.18;;;6.53;;
13321;SDS011;6730;46.248;6.930;2023-09-08T04:48:23;8.40;;;7.60;;
13321;SDS011;6730;46.248;6.930;2023-09-08T04:50:49;8.32;;;7.20;;
13321;SDS011;6730;46.248;6.930;2023-09-08T04:53:16;8.48;;;7.32;;
13321;SDS011;6730;46.248;6.930;2023-09-08T04:55:44;8.18;;;7.35;;
13321;SDS011;6730;46.248;6.930;2023-09-08T04:58:09;7.70;;;7.00;;
13321;SDS011;6730;46.248;6.930;2023-09-08T05:00:37;8.05;;;7.30;;
13321;SDS011;6730;46.248;6.930;2023-09-08T05:03:03;8.88;;;7.25;;
13321;SDS011;6730;46.248;6.930;2023-09-08T05:05:29;7.95;;;7.25;;
13321;SDS011;6730;46.248;6.930;2023-09-08T05:07:55;7.70;;;7.10;;
13321;SDS011;6730;46.248;6.930;2023-09-08T05:10:22;8.52;;;7.53;;
13321;SDS011;6730;46.248;6.930;2023-09-08T05:12:48;8.07;;;6.82;;
13321;SDS011;6730;46.248;6.930;2023-09-08T05:15:14;8.02;;;7.30;;
13321;SDS011;6730;46.248;6.930;2023-09-08T05:17:41;7.65;;;7.05;;
13321;SDS011;6730;46.248;6.930;2023-09-08T05:20:08;8.20;;;7.40;;
13321;SDS011;6730;46.248;6.930;2023-09-08T05:22:34;8.18;;;7.40;;
13321;SDS011;6730;46.248;6.930;2023-09-08T05:25:01;8.82;;;7.65;;
13321;SDS011;6730;46.248;6.930;2023-09-08T05:27:27;8.00;;;7.30;;
13321;SDS011;6730;46.248;6.930;2023-09-08T05:29:53;8.15;;;7.35;;
13321;SDS011;6730;46.248;6.930;2023-09-08T05:32:18;8.40;;;7.53;;
13321;SDS011;6730;46.248;6.930;2023-09-08T05:34:50;8.60;;;7.90;;
13321;SDS011;6730;46.248;6.930;2023-09-08T05:37:16;7.93;;;7.22;;
13321;SDS011;6730;46.248;6.930;2023-09-08T05:39:41;8.27;;;7.47;;
13321;SDS011;6730;46.248;6.930;2023-09-08T05:42:07;9.57;;;7.68;;
13321;SDS011;6730;46.248;6.930;2023-09-08T05:44:32;8.35;;;7.55;;
13321;SDS011;6730;46.248;6.930;2023-09-08T05:46:58;8.52;;;7.63;;
13321;SDS011;6730;46.248;6.930;2023-09-08T05:49:24;9.13;;;7.95;;
13321;SDS011;6730;46.248;6.930;2023-09-08T05:51:49;8.68;;;7.75;;
13321;SDS011;6730;46.248;6.930;2023-09-08T05:54:15;8.40;;;7.57;;
13321;SDS011;6730;46.248;6.930;2023-09-08T05:56:41;8.52;;;7.80;;
13321;SDS011;6730;46.248;6.930;2023-09-08T05:59:07;7.70;;;7.00;;
13321;SDS011;6730;46.248;6.930;2023-09-08T06:01:32;8.60;;;7.80;;
13321;SDS011;6730;46.248;6.930;2023-09-08T06:03:58;8.27;;;7.57;;
13321;SDS011;6730;46.248;6.930;2023-09-08T06:06:24;8.73;;;8.00;;
13321;SDS011;6730;46.248;6.930;2023-09-08T06:08:50;8.55;;;7.70;;
13321;SDS011;6730;46.248;6.930;2023-09-08T06:11:16;8.57;;;7.72;;
13321;SDS011;6730;46.248;6.930;2023-09-08T06:13:42;7.47;;;6.88;;
13321;SDS011;6730;46.248;6.930;2023-09-08T06:16:08;8.85;;;8.15;;
13321;SDS011;6730;46.248;6.930;2023-09-08T06:18:33;9.02;;;7.57;;
13321;SDS011;6730;46.248;6.930;2023-09-08T06:21:05;8.25;;;7.55;;
13321;SDS011;6730;46.248;6.930;2023-09-08T06:23:32;10.13;;;8.02;;
13321;SDS011;6730;46.248;6.930;2023-09-08T06:26:00;9.15;;;7.50;;
13321;SDS011;6730;46.248;6.930;2023-09-08T06:28:29;8.38;;;7.63;;
13321;SDS011;6730;46.248;6.930;2023-09-08T06:30:55;8.82;;;7.70;;
13321;SDS011;6730;46.248;6.930;2023-09-08T06:33:21;8.32;;;7.55;;
13321;SDS011;6730;46.248;6.930;2023-09-08T06:35:49;8.40;;;7.60;;
13321;SDS011;6730;46.248;6.930;2023-09-08T06:38:15;9.00;;;7.57;;
13321;SDS011;6730;46.248;6.930;2023-09-08T06:40:41;8.75;;;6.97;;
13321;SDS011;6730;46.248;6.930;2023-09-08T06:43:07;8.35;;;7.55;;
13321;SDS011;6730;46.248;6.930;2023-09-08T06:45:33;8.15;;;7.35;;
13321;SDS011;6730;46.248;6.930;2023-09-08T06:47:58;8.77;;;7.90;;
13321;SDS011;6730;46.248;6.930;2023-09-08T06:50:25;9.10;;;7.55;;
13321;SDS011;6730;46.248;6.930;2023-09-08T06:52:51;8.77;;;8.00;;
13321;SDS011;6730;46.248;6.930;2023-09-08T06:55:17;7.85;;;7.25;;
13321;SDS011;6730;46.248;6.930;2023-09-08T06:57:43;7.93;;;7.13;;
13321;SDS011;6730;46.248;6.930;2023-09-08T07:00:09;8.90;;;7.07;;
13321;SDS011;6730;46.248;6.930;2023-09-08T07:02:39;7.97;;;7.38;;
13321;SDS011;6730;46.248;6.930;2023-09-08T07:05:05;8.07;;;7.38;;
13321;SDS011;6730;46.248;6.930;2023-09-08T07:07:34;8.13;;;7.35;;
13321;SDS011;6730;46.248;6.930;2023-09-08T07:10:03;10.10;;;7.47;;
13321;SDS011;6730;46.248;6.930;2023-09-08T07:12:30;9.23;;;8.25;;
13321;SDS011;6730;46.248;6.930;2023-09-08T07:14:58;8.57;;;7.63;;
13321;SDS011;6730;46.248;6.930;2023-09-08T07:17:24;8.05;;;7.32;;
13321;SDS011;6730;46.248;6.930;2023-09-08T07:19:50;8.98;;;8.07;;
13321;SDS011;6730;46.248;6.930;2023-09-08T07:22:16;10.25;;;8.10;;
13321;SDS011;6730;46.248;6.930;2023-09-08T07:24:42;8.10;;;7.40;;
13321;SDS011;6730;46.248;6.930;2023-09-08T07:27:09;9.45;;;8.20;;
13321;SDS011;6730;46.248;6.930;2023-09-08T07:29:37;10.25;;;7.93;;
13321;SDS011;6730;46.248;6.930;2023-09-08T07:32:03;9.07;;;8.02;;
13321;SDS011;6730;46.248;6.930;2023-09-08T07:34:29;9.25;;;7.90;;
13321;SDS011;6730;46.248;6.930;2023-09-08T07:36:55;11.85;;;7.97;;
13321;SDS011;6730;46.248;6.930;2023-09-08T07:39:21;8.90;;;8.10;;
13321;SDS011;6730;46.248;6.930;2023-09-08T07:41:46;11.00;;;7.70;;
13321;SDS011;6730;46.248;6.930;2023-09-08T07:44:12;9.27;;;7.82;;
13321;SDS011;6730;46.248;6.930;2023-09-08T07:46:38;10.35;;;8.10;;
13321;SDS011;6730;46.248;6.930;2023-09-08T07:49:04;8.35;;;7.50;;
13321;SDS011;6730;46.248;6.930;2023-09-08T07:51:29;12.82;;;8.18;;
13321;SDS011;6730;46.248;6.930;2023-09-08T07:53:55;8.68;;;7.80;;
13321;SDS011;6730;46.248;6.930;2023-09-08T07:56:21;10.60;;;7.78;;
13321;SDS011;6730;46.248;6.930;2023-09-08T07:58:47;10.23;;;7.80;;
13321;SDS011;6730;46.248;6.930;2023-09-08T08:01:13;8.18;;;7.38;;
13321;SDS011;6730;46.248;6.930;2023-09-08T08:03:40;8.77;;;7.80;;
13321;SDS011;6730;46.248;6.930;2023-09-08T08:06:06;9.30;;;7.57;;
13321;SDS011;6730;46.248;6.930;2023-09-08T08:08:31;7.70;;;6.97;;
13321;SDS011;6730;46.248;6.930;2023-09-08T08:10:58;8.38;;;7.57;;
13321;SDS011;6730;46.248;6.930;2023-09-08T08:13:24;8.27;;;7.47;;
13321;SDS011;6730;46.248;6.930;2023-09-08T08:15:50;9.50;;;8.50;;
13321;SDS011;6730;46.248;6.930;2023-09-08T08:18:15;8.05;;;7.25;;
13321;SDS011;6730;46.248;6.930;2023-09-08T08:20:41;9.02;;;8.25;;
13321;SDS011;6730;46.248;6.930;2023-09-08T08:23:07;8.50;;;7.70;;
13321;SDS011;6730;46.248;6.930;2023-09-08T08:25:33;8.38;;;7.57;;
13321;SDS011;6730;46.248;6.930;2023-09-08T08:27:59;9.48;;;8.50;;
13321;SDS011;6730;46.248;6.930;2023-09-08T08:30:26;9.25;;;8.40;;
13321;SDS011;6730;46.248;6.930;2023-09-08T08:32:52;9.95;;;8.57;;
13321;SDS011;6730;46.248;6.930;2023-09-08T08:35:18;9.40;;;8.50;;
13321;SDS011;6730;46.248;6.930;2023-09-08T08:37:45;9.75;;;8.43;;
13321;SDS011;6730;46.248;6.930;2023-09-08T08:40:10;8.70;;;7.90;;
13321;SDS011;6730;46.248;6.930;2023-09-08T08:42:40;10.05;;;8.60;;
13321;SDS011;6730;46.248;6.930;2023-09-08T08:45:06;16.33;;;7.93;;
13321;SDS011;6730;46.248;6.930;2023-09-08T08:47:32;9.02;;;8.20;;
13321;SDS011;6730;46.248;6.930;2023-09-08T08:49:59;8.50;;;7.70;;
13321;SDS011;6730;46.248;6.930;2023-09-08T08:52:26;9.15;;;8.05;;
13321;SDS011;6730;46.248;6.930;2023-09-08T08:54:52;8.98;;;8.18;;
13321;SDS011;6730;46.248;6.930;2023-09-08T08:57:18;9.05;;;8.15;;
13321;SDS011;6730;46.248;6.930;2023-09-08T08:59:49;9.30;;;8.38;;
13321;SDS011;6730;46.248;6.930;2023-09-08T09:02:18;9.20;;;8.32;;
13321;SDS011;6730;46.248;6.930;2023-09-08T09:04:44;8.05;;;7.43;;
13321;SDS011;6730;46.248;6.930;2023-09-08T09:07:12;8.90;;;8.10;;
13321;SDS011;6730;46.248;6.930;2023-09-08T09:09:38;8.80;;;8.00;;
13321;SDS011;6730;46.248;6.930;2023-09-08T09:12:05;8.82;;;7.85;;
13321;SDS011;6730;46.248;6.930;2023-09-08T09:14:32;11.90;;;8.13;;
13321;SDS011;6730;46.248;6.930;2023-09-08T09:16:58;8.55;;;7.75;;
13321;SDS011;6730;46.248;6.930;2023-09-08T09:19:25;11.77;;;8.48;;
13321;SDS011;6730;46.248;6.930;2023-09-08T09:21:52;9.88;;;8.10;;
13321;SDS011;6730;46.248;6.930;2023-09-08T09:24:35;14.73;;;8.32;;
13321;SDS011;6730;46.248;6.930;2023-09-08T09:27:08;9.13;;;8.32;;
13321;SDS011;6730;46.248;6.930;2023-09-08T09:29:45;10.30;;;8.63;;
13321;SDS011;6730;46.248;6.930;2023-09-08T09:32:11;8.60;;;7.72;;
13321;SDS011;6730;46.248;6.930;2023-09-08T09:34:47;9.77;;;8.38;;
13321;SDS011;6730;46.248;6.930;2023-09-08T09:37:18;8.82;;;7.93;;
13321;SDS011;6730;46.248;6.930;2023-09-08T09:39:47;8.68;;;7.88;;
13321;SDS011;6730;46.248;6.930;2023-09-08T09:42:14;9.65;;;8.75;;
13321;SDS011;6730;46.248;6.930;2023-09-08T09:44:40;10.10;;;9.20;;
13321;SDS011;6730;46.248;6.930;2023-09-08T09:47:06;9.85;;;8.88;;
13321;SDS011;6730;46.248;6.930;2023-09-08T09:49:35;8.80;;;8.00;;
13321;SDS011;6730;46.248;6.930;2023-09-08T09:52:11;9.65;;;8.80;;
13321;SDS011;6730;46.248;6.930;2023-09-08T09:54:39;9.65;;;8.65;;
13321;SDS011;6730;46.248;6.930;2023-09-08T09:57:12;10.70;;;9.52;;
13321;SDS011;6730;46.248;6.930;2023-09-08T09:59:40;8.95;;;8.07;;
13321;SDS011;6730;46.248;6.930;2023-09-08T10:02:10;10.45;;;9.43;;
13321;SDS011;6730;46.248;6.930;2023-09-08T10:04:39;9.98;;;9.10;;
13321;SDS011;6730;46.248;6.930;2023-09-08T10:07:06;10.02;;;8.88;;
13321;SDS011;6730;46.248;6.930;2023-09-08T10:09:32;13.90;;;8.07;;
13321;SDS011;6730;46.248;6.930;2023-09-08T10:11:59;10.55;;;9.43;;
13321;SDS011;6730;46.248;6.930;2023-09-08T10:14:28;9.10;;;8.23;;
13321;SDS011;6730;46.248;6.930;2023-09-08T10:16:56;9.82;;;8.90;;
13321;SDS011;6730;46.248;6.930;2023-09-08T10:19:25;10.52;;;9.50;;
13321;SDS011;6730;46.248;6.930;2023-09-08T10:21:51;10.60;;;9.32;;
13321;SDS011;6730;46.248;6.930;2023-09-08T10:24:26;11.10;;;8.90;;
13321;SDS011;6730;46.248;6.930;2023-09-08T10:27:04;11.95;;;8.63;;
13321;SDS011;6730;46.248;6.930;2023-09-08T10:29:37;9.90;;;9.00;;
13321;SDS011;6730;46.248;6.930;2023-09-08T10:32:04;9.75;;;8.75;;
13321;SDS011;6730;46.248;6.930;2023-09-08T10:34:31;9.63;;;8.73;;
13321;SDS011;6730;46.248;6.930;2023-09-08T10:36:58;10.15;;;8.77;;
13321;SDS011;6730;46.248;6.930;2023-09-08T10:39:28;9.63;;;8.70;;
13321;SDS011;6730;46.248;6.930;2023-09-08T10:45:13;9.05;;;8.23;;
13321;SDS011;6730;46.248;6.930;2023-09-08T10:47:41;9.15;;;8.35;;
13321;SDS011;6730;46.248;6.930;2023-09-08T10:50:31;9.27;;;8.48;;
13321;SDS011;6730;46.248;6.930;2023-09-08T10:55:35;9.02;;;8.23;;
13321;SDS011;6730;46.248;6.930;2023-09-08T10:58:09;9.38;;;8.65;;
13321;SDS011;6730;46.248;6.930;2023-09-08T11:00:54;9.60;;;8.73;;
13321;SDS011;6730;46.248;6.930;2023-09-08T11:06:03;9.68;;;8.70;;
13321;SDS011;6730;46.248;6.930;2023-09-08T11:08:33;9.35;;;8.55;;
13321;SDS011;6730;46.248;6.930;2023-09-08T11:11:01;9.27;;;8.40;;
13321;SDS011;6730;46.248;6.930;2023-09-08T11:13:27;9.20;;;8.40;;
13321;SDS011;6730;46.248;6.930;2023-09-08T11:15:53;10.18;;;8.77;;
13321;SDS011;6730;46.248;6.930;2023-09-08T11:18:26;11.20;;;8.75;;
13321;SDS011;6730;46.248;6.930;2023-09-08T11:20:55;9.00;;;8.27;;
13321;SDS011;6730;46.248;6.930;2023-09-08T11:23:22;9.80;;;8.90;;
13321;SDS011;6730;46.248;6.930;2023-09-08T11:25:52;9.82;;;9.05;;
13321;SDS011;6730;46.248;6.930;2023-09-08T11:28:18;11.55;;;9.43;;
13321;SDS011;6730;46.248;6.930;2023-09-08T11:30:48;9.98;;;9.00;;
13321;SDS011;6730;46.248;6.930;2023-09-08T11:33:15;9.40;;;8.60;;
13321;SDS011;6730;46.248;6.930;2023-09-08T11:35:49;10.85;;;8.27;;
13321;SDS011;6730;46.248;6.930;2023-09-08T11:38:15;9.27;;;8.40;;
13321;SDS011;6730;46.248;6.930;2023-09-08T11:40:41;9.43;;;8.52;;
13321;SDS011;6730;46.248;6.930;2023-09-08T11:43:07;8.85;;;8.05;;
13321;SDS011;6730;46.248;6.930;2023-09-08T11:45:34;9.27;;;8.55;;
13321;SDS011;6730;46.248;6.930;2023-09-08T11:48:01;9.40;;;8.45;;
13321;SDS011;6730;46.248;6.930;2023-09-08T11:50:27;10.02;;;8.82;;
13321;SDS011;6730;46.248;6.930;2023-09-08T11:52:53;9.55;;;8.85;;
13321;SDS011;6730;46.248;6.930;2023-09-08T11:55:19;9.82;;;8.93;;
13321;SDS011;6730;46.248;6.930;2023-09-08T11:57:50;10.40;;;9.50;;
13321;SDS011;6730;46.248;6.930;2023-09-08T12:00:20;10.98;;;9.10;;
13321;SDS011;6730;46.248;6.930;2023-09-08T12:02:48;10.00;;;9.10;;
13321;SDS011;6730;46.248;6.930;2023-09-08T12:05:27;10.23;;;9.32;;
13321;SDS011;6730;46.248;6.930;2023-09-08T12:07:54;10.23;;;9.35;;
13321;SDS011;6730;46.248;6.930;2023-09-08T12:10:21;10.23;;;9.23;;
13321;SDS011;6730;46.248;6.930;2023-09-08T12:12:48;10.50;;;9.55;;
13321;SDS011;6730;46.248;6.930;2023-09-08T12:15:33;10.57;;;9.57;;
13321;SDS011;6730;46.248;6.930;2023-09-08T12:18:04;10.35;;;9.45;;
13321;SDS011;6730;46.248;6.930;2023-09-08T12:20:38;10.50;;;9.50;;
13321;SDS011;6730;46.248;6.930;2023-09-08T12:23:05;10.40;;;9.60;;
13321;SDS011;6730;46.248;6.930;2023-09-08T12:25:47;11.50;;;10.30;;
13321;SDS011;6730;46.248;6.930;2023-09-08T12:28:15;9.85;;;8.95;;
13321;SDS011;6730;46.248;6.930;2023-09-08T12:30:42;10.20;;;9.20;;
13321;SDS011;6730;46.248;6.930;2023-09-08T12:33:08;11.68;;;9.95;;
13321;SDS011;6730;46.248;6.930;2023-09-08T12:35:37;11.77;;;10.05;;
13321;SDS011;6730;46.248;6.930;2023-09-08T12:38:03;11.57;;;9.65;;
13321;SDS011;6730;46.248;6.930;2023-09-08T12:40:33;11.10;;;10.02;;
13321;SDS011;6730;46.248;6.930;2023-09-08T12:43:00;11.15;;;10.05;;
13321;SDS011;6730;46.248;6.930;2023-09-08T12:45:26;10.70;;;9.63;;
13321;SDS011;6730;46.248;6.930;2023-09-08T12:47:53;10.32;;;9.30;;
13321;SDS011;6730;46.248;6.930;2023-09-08T12:50:23;9.65;;;8.80;;
13321;SDS011;6730;46.248;6.930;2023-09-08T12:52:49;9.82;;;8.88;;
13321;SDS011;6730;46.248;6.930;2023-09-08T12:55:15;10.75;;;9.57;;
13321;SDS011;6730;46.248;6.930;2023-09-08T12:57:41;10.10;;;9.10;;
13321;SDS011;6730;46.248;6.930;2023-09-08T13:00:07;10.68;;;9.57;;
13321;SDS011;6730;46.248;6.930;2023-09-08T13:02:33;9.48;;;8.68;;
13321;SDS011;6730;46.248;6.930;2023-09-08T13:04:59;10.57;;;9.57;;
13321;SDS011;6730;46.248;6.930;2023-09-08T13:07:26;9.90;;;8.90;;
13321;SDS011;6730;46.248;6.930;2023-09-08T13:09:51;10.07;;;9.10;;
13321;SDS011;6730;46.248;6.930;2023-09-08T13:12:17;13.43;;;9.32;;
13321;SDS011;6730;46.248;6.930;2023-09-08T13:14:43;10.52;;;9.52;;
13321;SDS011;6730;46.248;6.930;2023-09-08T13:17:12;11.52;;;9.20;;
13321;SDS011;6730;46.248;6.930;2023-09-08T13:19:42;10.02;;;9.07;;
13321;SDS011;6730;46.248;6.930;2023-09-08T13:22:08;10.43;;;9.40;;
13321;SDS011;6730;46.248;6.930;2023-09-08T13:24:35;10.20;;;9.35;;
13321;SDS011;6730;46.248;6.930;2023-09-08T13:27:00;11.10;;;9.75;;
13321;SDS011;6730;46.248;6.930;2023-09-08T13:29:26;9.82;;;9.02;;
13321;SDS011;6730;46.248;6.930;2023-09-08T13:31:53;10.38;;;9.35;;
13321;SDS011;6730;46.248;6.930;2023-09-08T13:34:19;10.50;;;9.50;;
13321;SDS011;6730;46.248;6.930;2023-09-08T13:36:48;10.23;;;9.43;;
13321;SDS011;6730;46.248;6.930;2023-09-08T13:39:14;10.20;;;9.30;;
13321;SDS011;6730;46.248;6.930;2023-09-08T13:44:13;9.75;;;8.85;;
13321;SDS011;6730;46.248;6.930;2023-09-08T13:46:39;10.30;;;9.30;;
13321;SDS011;6730;46.248;6.930;2023-09-08T13:49:05;10.68;;;9.68;;
13321;SDS011;6730;46.248;6.930;2023-09-08T13:51:31;10.20;;;9.27;;
13321;SDS011;6730;46.248;6.930;2023-09-08T13:53:57;10.43;;;9.52;;
13321;SDS011;6730;46.248;6.930;2023-09-08T13:56:23;10.20;;;9.20;;
13321;SDS011;6730;46.248;6.930;2023-09-08T13:58:48;9.55;;;8.60;;
13321;SDS011;6730;46.248;6.930;2023-09-08T14:01:14;11.02;;;8.73;;
13321;SDS011;6730;46.248;6.930;2023-09-08T14:03:40;10.55;;;9.50;;
13321;SDS011;6730;46.248;6.930;2023-09-08T14:06:06;10.30;;;9.18;;
13321;SDS011;6730;46.248;6.930;2023-09-08T14:08:31;11.35;;;9.40;;
13321;SDS011;6730;46.248;6.930;2023-09-08T14:10:57;10.30;;;9.30;;
13321;SDS011;6730;46.248;6.930;2023-09-08T14:13:23;15.07;;;9.18;;
13321;SDS011;6730;46.248;6.930;2023-09-08T14:15:48;9.45;;;8.63;;
13321;SDS011;6730;46.248;6.930;2023-09-08T14:18:14;9.77;;;8.82;;
13321;SDS011;6730;46.248;6.930;2023-09-08T14:20:40;9.95;;;9.02;;
13321;SDS011;6730;46.248;6.930;2023-09-08T14:23:07;9.68;;;8.77;;
13321;SDS011;6730;46.248;6.930;2023-09-08T14:25:33;11.70;;;9.13;;
13321;SDS011;6730;46.248;6.930;2023-09-08T14:27:59;9.98;;;9.07;;
13321;SDS011;6730;46.248;6.930;2023-09-08T14:30:28;10.18;;;9.02;;
13321;SDS011;6730;46.248;6.930;2023-09-08T14:32:54;9.90;;;9.00;;
13321;SDS011;6730;46.248;6.930;2023-09-08T14:35:20;9.82;;;8.90;;
13321;SDS011;6730;46.248;6.930;2023-09-08T14:37:48;11.45;;;9.55;;
13321;SDS011;6730;46.248;6.930;2023-09-08T14:40:15;10.23;;;9.32;;
13321;SDS011;6730;46.248;6.930;2023-09-08T14:42:40;10.20;;;8.90;;
13321;SDS011;6730;46.248;6.930;2023-09-08T14:45:06;10.60;;;9.60;;
13321;SDS011;6730;46.248;6.930;2023-09-08T14:47:33;10.40;;;9.40;;
13321;SDS011;6730;46.248;6.930;2023-09-08T14:49:59;9.88;;;8.90;;
13321;SDS011;6730;46.248;6.930;2023-09-08T14:52:25;10.60;;;9.50;;
13321;SDS011;6730;46.248;6.930;2023-09-08T14:54:51;17.35;;;15.45;;
13321;SDS011;6730;46.248;6.930;2023-09-08T14:57:17;11.30;;;10.23;;
13321;SDS011;6730;46.248;6.930;2023-09-08T14:59:43;10.75;;;9.63;;
13321;SDS011;6730;46.248;6.930;2023-09-08T15:02:09;9.63;;;8.70;;
13321;SDS011;6730;46.248;6.930;2023-09-08T15:04:35;10.77;;;9.80;;
13321;SDS011;6730;46.248;6.930;2023-09-08T15:07:01;10.27;;;8.88;;
13321;SDS011;6730;46.248;6.930;2023-09-08T15:09:27;9.50;;;8.45;;
13321;SDS011;6730;46.248;6.930;2023-09-08T15:11:52;10.30;;;8.88;;